Time;durP1;ratioP1;P1;durP2;ratioP2;P2;SDS_P1;SDS_P2;PMS_P1;PMS_P2;Temp;Humidity;BMP_temperature;BMP_pressure;BME280_temperature;BME280_humidity;BME280_pressure;Samples;Min_cycle;Max_cycle;Signal;HPM_P1;HPM_P2
2023/04/25 00:00:26;;;;;;;27.25;5.45;;;;;;;;;;5026693;28;20041;-75
2023/04/25 00:02:52;;;;;;;29.63;6.15;;;;;;;;;;5028253;28;20492;-75
2023/04/25 00:05:19;;;;;;;28.10;6.30;;;;;;;;;;5024591;28;20057;-74
2023/04/25 00:07:45;;;;;;;30.55;6.07;;;;;;;;;;5010758;28;20136;-74
2023/04/25 00:10:12;;;;;;;26.10;6.25;;;;;;;;;;5025385;28;20048;-75
2023/04/25 00:12:38;;;;;;;25.52;5.82;;;;;;;;;;5044990;28;20053;-76
2023/04/25 00:15:05;;;;;;;20.27;4.30;;;;;;;;;;5026795;28;20136;-74
2023/04/25 00:17:31;;;;;;;23.17;4.43;;;;;;;;;;5027323;28;20094;-75
2023/04/25 00:19:58;;;;;;;33.05;6.68;;;;;;;;;;5027629;28;20045;-74
2023/04/25 00:22:24;;;;;;;28.58;6.38;;;;;;;;;;5025818;28;20428;-74
2023/04/25 00:24:50;;;;;;;23.80;6.03;;;;;;;;;;5031306;28;20762;-75
2023/04/25 00:27:16;;;;;;;27.02;5.60;;;;;;;;;;5030475;28;20148;-75
2023/04/25 00:29:42;;;;;;;30.10;6.30;;;;;;;;;;5031495;28;20358;-75
2023/04/25 00:32:08;;;;;;;24.85;6.93;;;;;;;;;;5030051;28;20049;-75
2023/04/25 00:34:34;;;;;;;27.58;6.20;;;;;;;;;;5048358;28;20113;-75
2023/04/25 00:37:01;;;;;;;33.60;6.28;;;;;;;;;;5030498;28;20047;-75
2023/04/25 00:39:27;;;;;;;29.02;5.70;;;;;;;;;;5048237;28;20123;-75
2023/04/25 00:41:54;;;;;;;23.65;6.15;;;;;;;;;;5031250;28;20136;-74
2023/04/25 00:44:21;;;;;;;24.20;4.82;;;;;;;;;;5046289;28;20040;-75
2023/04/25 00:46:51;;;;;;;22.48;5.10;;;;;;;;;;5048926;28;20061;-75
2023/04/25 00:49:17;;;;;;;32.25;6.05;;;;;;;;;;5017574;28;20077;-75
2023/04/25 00:51:44;;;;;;;31.48;5.68;;;;;;;;;;5047513;28;20091;-75
2023/04/25 00:54:11;;;;;;;31.60;4.97;;;;;;;;;;5030255;28;20053;-75
2023/04/25 00:56:37;;;;;;;27.52;5.10;;;;;;;;;;5047750;28;20036;-75
2023/04/25 00:59:03;;;;;;;29.63;5.43;;;;;;;;;;5030548;28;20041;-74
2023/04/25 01:01:29;;;;;;;26.73;4.88;;;;;;;;;;5028259;28;20056;-75
2023/04/25 01:03:56;;;;;;;28.17;4.78;;;;;;;;;;5030203;28;20048;-75
2023/04/25 01:06:22;;;;;;;30.23;6.47;;;;;;;;;;5028840;28;20485;-74
2023/04/25 01:08:48;;;;;;;26.17;5.18;;;;;;;;;;5030237;28;20052;-75
2023/04/25 01:11:14;;;;;;;23.20;5.68;;;;;;;;;;5012602;28;20049;-74
2023/04/25 01:13:40;;;;;;;24.98;5.45;;;;;;;;;;5048173;28;20101;-73
2023/04/25 01:16:06;;;;;;;30.33;4.95;;;;;;;;;;5030027;28;20132;-74
2023/04/25 01:18:32;;;;;;;28.35;5.03;;;;;;;;;;5029468;28;20112;-75
2023/04/25 01:21:06;;;;;;;24.08;5.18;;;;;;;;;;5029238;28;20080;-75
2023/04/25 01:23:33;;;;;;;30.15;4.65;;;;;;;;;;5046824;28;20049;-75
2023/04/25 01:25:59;;;;;;;27.00;4.28;;;;;;;;;;5030114;28;20040;-75
2023/04/25 01:28:25;;;;;;;23.02;4.18;;;;;;;;;;5030108;28;20045;-74
2023/04/25 01:30:52;;;;;;;33.33;6.03;;;;;;;;;;5029533;28;20095;-75
2023/04/25 01:33:19;;;;;;;27.55;5.10;;;;;;;;;;5029514;28;20052;-74
2023/04/25 01:35:45;;;;;;;21.67;4.97;;;;;;;;;;5026760;28;20520;-74
2023/04/25 01:38:12;;;;;;;28.27;4.45;;;;;;;;;;5030050;28;20055;-75
2023/04/25 01:40:39;;;;;;;25.33;4.72;;;;;;;;;;5027767;28;20053;-75
2023/04/25 01:43:05;;;;;;;26.63;4.63;;;;;;;;;;5048341;28;20493;-74
2023/04/25 01:45:31;;;;;;;20.48;4.15;;;;;;;;;;5046201;28;20155;-75
2023/04/25 01:47:59;;;;;;;23.90;4.53;;;;;;;;;;5030178;28;20132;-74
2023/04/25 01:50:25;;;;;;;19.98;4.50;;;;;;;;;;5046487;28;20044;-74
2023/04/25 01:52:51;;;;;;;23.50;4.43;;;;;;;;;;5046626;28;20060;-75
2023/04/25 01:55:17;;;;;;;25.00;4.20;;;;;;;;;;5047185;28;20106;-74
2023/04/25 01:57:43;;;;;;;21.00;3.95;;;;;;;;;;5012618;28;20164;-73
2023/04/25 02:00:10;;;;;;;22.80;3.95;;;;;;;;;;5028660;28;20451;-74
2023/04/25 02:02:36;;;;;;;24.48;4.43;;;;;;;;;;5046684;28;20523;-75
2023/04/25 02:05:02;;;;;;;24.20;4.65;;;;;;;;;;5028708;28;20045;-74
2023/04/25 02:07:28;;;;;;;24.55;4.60;;;;;;;;;;5046314;28;20053;-74
2023/04/25 02:09:54;;;;;;;29.25;5.20;;;;;;;;;;5029276;28;20048;-74
2023/04/25 02:12:20;;;;;;;25.58;4.25;;;;;;;;;;5029356;28;20052;-75
2023/04/25 02:14:46;;;;;;;19.90;5.03;;;;;;;;;;5046221;28;20151;-74
2023/04/25 02:17:12;;;;;;;23.00;3.63;;;;;;;;;;5029751;28;20116;-75
2023/04/25 02:19:38;;;;;;;24.25;4.22;;;;;;;;;;5027210;28;20083;-75
2023/04/25 02:22:04;;;;;;;23.67;4.60;;;;;;;;;;5047018;28;20090;-75
2023/04/25 02:24:31;;;;;;;17.02;3.70;;;;;;;;;;5027627;28;20061;-75
2023/04/25 02:26:57;;;;;;;18.73;3.55;;;;;;;;;;5047075;28;20087;-74
2023/04/25 02:29:23;;;;;;;18.50;3.75;;;;;;;;;;5047438;28;20045;-75
2023/04/25 02:31:49;;;;;;;17.80;3.17;;;;;;;;;;5026236;28;20040;-75
2023/04/25 02:34:16;;;;;;;23.45;4.13;;;;;;;;;;5027890;28;20056;-75
2023/04/25 02:36:43;;;;;;;22.13;4.03;;;;;;;;;;5044964;28;20167;-75
2023/04/25 02:39:08;;;;;;;16.98;3.60;;;;;;;;;;5028982;28;20552;-75
2023/04/25 02:41:34;;;;;;;23.73;3.88;;;;;;;;;;5026652;28;20516;-74
2023/04/25 02:44:00;;;;;;;22.38;3.33;;;;;;;;;;5028685;28;20722;-74
2023/04/25 02:46:26;;;;;;;16.50;3.28;;;;;;;;;;5027563;28;20033;-74
2023/04/25 02:48:52;;;;;;;15.77;2.97;;;;;;;;;;5027618;28;20041;-74
2023/04/25 02:51:18;;;;;;;13.98;3.22;;;;;;;;;;5026870;28;20413;-74
2023/04/25 02:53:44;;;;;;;17.83;3.38;;;;;;;;;;5045337;28;20052;-74
2023/04/25 02:56:10;;;;;;;13.52;3.50;;;;;;;;;;5029438;28;20048;-74
2023/04/25 02:58:36;;;;;;;23.73;4.22;;;;;;;;;;5045018;28;20044;-74
2023/04/25 03:01:02;;;;;;;20.92;3.60;;;;;;;;;;5026094;28;20146;-74
2023/04/25 03:03:28;;;;;;;20.60;3.63;;;;;;;;;;5027275;28;20052;-75
2023/04/25 03:05:54;;;;;;;20.42;3.63;;;;;;;;;;5044927;28;20049;-75
2023/04/25 03:08:20;;;;;;;22.73;4.40;;;;;;;;;;5024862;28;20527;-75
2023/04/25 03:10:46;;;;;;;21.60;3.72;;;;;;;;;;5027651;28;20045;-75
2023/04/25 03:13:12;;;;;;;20.98;4.05;;;;;;;;;;5028519;28;20056;-74
2023/04/25 03:15:39;;;;;;;23.33;4.35;;;;;;;;;;5027025;28;20542;-75
2023/04/25 03:18:05;;;;;;;15.43;3.00;;;;;;;;;;5029110;28;20040;-75
2023/04/25 03:20:31;;;;;;;19.80;3.67;;;;;;;;;;5025304;28;20168;-75
2023/04/25 03:22:57;;;;;;;23.95;3.60;;;;;;;;;;5027482;28;20206;-75
2023/04/25 03:25:23;;;;;;;22.38;4.28;;;;;;;;;;5026852;28;20519;-74
2023/04/25 03:27:49;;;;;;;19.35;3.72;;;;;;;;;;5045968;28;20037;-74
2023/04/25 03:30:15;;;;;;;22.05;3.35;;;;;;;;;;5046094;28;20072;-75
2023/04/25 03:32:41;;;;;;;19.52;3.17;;;;;;;;;;5044801;28;20106;-75
2023/04/25 03:35:07;;;;;;;19.48;3.65;;;;;;;;;;5027323;28;20059;-74
2023/04/25 03:37:33;;;;;;;18.08;3.35;;;;;;;;;;5026053;28;20052;-74
2023/04/25 03:39:59;;;;;;;21.27;4.45;;;;;;;;;;5044636;28;20500;-75
2023/04/25 03:42:25;;;;;;;20.08;3.05;;;;;;;;;;5026731;28;20067;-75
2023/04/25 03:44:52;;;;;;;18.55;3.22;;;;;;;;;;5027667;28;20048;-74
2023/04/25 03:47:18;;;;;;;18.42;3.03;;;;;;;;;;5010695;28;20082;-74
2023/04/25 03:49:44;;;;;;;15.90;3.30;;;;;;;;;;5044312;28;20041;-74
2023/04/25 03:52:10;;;;;;;18.27;3.40;;;;;;;;;;5027541;28;20095;-75
2023/04/25 03:54:36;;;;;;;14.95;3.00;;;;;;;;;;5026302;28;20041;-74
2023/04/25 03:57:02;;;;;;;15.57;3.05;;;;;;;;;;5026882;28;20032;-75
2023/04/25 03:59:28;;;;;;;19.67;3.00;;;;;;;;;;5026121;28;20073;-74
2023/04/25 04:01:55;;;;;;;17.13;3.63;;;;;;;;;;5026901;28;20432;-74
2023/04/25 04:04:21;;;;;;;18.23;3.33;;;;;;;;;;5043347;28;20048;-74
2023/04/25 04:06:47;;;;;;;20.42;3.25;;;;;;;;;;5044428;28;20041;-74
2023/04/25 04:09:13;;;;;;;15.00;3.63;;;;;;;;;;5044592;28;20037;-74
2023/04/25 04:11:39;;;;;;;14.77;3.25;;;;;;;;;;5026864;28;20423;-74
2023/04/25 04:14:09;;;;;;;19.30;3.45;;;;;;;;;;5027397;28;20521;-75
2023/04/25 04:16:35;;;;;;;22.50;3.00;;;;;;;;;;5026216;28;20052;-75
2023/04/25 04:19:03;;;;;;;14.02;3.38;;;;;;;;;;5044251;28;20211;-75
2023/04/25 04:21:29;;;;;;;16.88;2.75;;;;;;;;;;5026406;28;20543;-75
2023/04/25 04:23:57;;;;;;;17.77;3.72;;;;;;;;;;5027153;28;20582;-75
2023/04/25 04:26:23;;;;;;;15.32;3.10;;;;;;;;;;5026894;28;20053;-75
2023/04/25 04:28:54;;;;;;;14.38;2.75;;;;;;;;;;5044171;28;20037;-75
2023/04/25 04:31:21;;;;;;;20.83;3.13;;;;;;;;;;5027170;28;20107;-74
2023/04/25 04:33:47;;;;;;;14.43;2.72;;;;;;;;;;5025786;28;20059;-74
2023/04/25 04:36:13;;;;;;;24.98;3.40;;;;;;;;;;5042922;28;20041;-75
2023/04/25 04:38:40;;;;;;;14.73;2.70;;;;;;;;;;5025516;28;20120;-76
2023/04/25 04:41:07;;;;;;;18.67;3.20;;;;;;;;;;5026117;28;20814;-75
2023/04/25 04:43:33;;;;;;;18.95;3.60;;;;;;;;;;5026348;28;20041;-75
2023/04/25 04:45:59;;;;;;;18.10;3.10;;;;;;;;;;5026382;28;20040;-76
2023/04/25 04:48:26;;;;;;;22.02;3.20;;;;;;;;;;5044444;28;20048;-74
2023/04/25 04:50:52;;;;;;;12.07;2.70;;;;;;;;;;5041099;28;20053;-75
2023/04/25 04:53:18;;;;;;;25.55;4.53;;;;;;;;;;5026446;28;20049;-75
2023/04/25 04:55:44;;;;;;;23.95;2.90;;;;;;;;;;5026174;28;20092;-75
2023/04/25 04:58:10;;;;;;;17.67;3.08;;;;;;;;;;5026832;28;20104;-75
2023/04/25 05:00:36;;;;;;;21.70;3.10;;;;;;;;;;5026237;28;20049;-75
2023/04/25 05:03:02;;;;;;;15.85;3.03;;;;;;;;;;5027113;28;20043;-75
2023/04/25 05:05:28;;;;;;;16.55;2.72;;;;;;;;;;5044340;28;20316;-74
2023/04/25 05:07:54;;;;;;;16.92;2.55;;;;;;;;;;5025634;28;20610;-75
2023/04/25 05:10:20;;;;;;;18.23;2.95;;;;;;;;;;5030530;28;20048;-75
2023/04/25 05:12:46;;;;;;;19.55;2.80;;;;;;;;;;5029166;28;20048;-75
2023/04/25 05:15:12;;;;;;;16.10;3.30;;;;;;;;;;5030727;28;20053;-76
2023/04/25 05:17:38;;;;;;;26.00;3.25;;;;;;;;;;5028650;28;20064;-75
2023/04/25 05:20:05;;;;;;;14.75;2.70;;;;;;;;;;5029272;28;20057;-74
2023/04/25 05:22:31;;;;;;;20.45;3.80;;;;;;;;;;5029236;28;20083;-75
2023/04/25 05:24:57;;;;;;;16.27;2.72;;;;;;;;;;5029125;28;20061;-75
2023/04/25 05:27:25;;;;;;;17.20;3.20;;;;;;;;;;5029945;28;20052;-75
2023/04/25 05:29:52;;;;;;;15.90;2.95;;;;;;;;;;5047110;28;20385;-75
2023/04/25 05:32:18;;;;;;;15.55;3.08;;;;;;;;;;5029459;28;20061;-75
2023/04/25 05:34:44;;;;;;;18.55;3.58;;;;;;;;;;5028401;28;20512;-75
2023/04/25 05:37:10;;;;;;;18.17;3.75;;;;;;;;;;5029395;28;20084;-75
2023/04/25 05:39:36;;;;;;;20.40;3.00;;;;;;;;;;5029943;28;20076;-75
2023/04/25 05:42:03;;;;;;;19.10;2.88;;;;;;;;;;5046335;28;20041;-75
2023/04/25 05:44:29;;;;;;;11.98;3.08;;;;;;;;;;5030075;28;20156;-75
2023/04/25 05:46:55;;;;;;;17.88;3.03;;;;;;;;;;5045663;28;20143;-74
2023/04/25 05:49:21;;;;;;;20.85;3.83;;;;;;;;;;5047638;28;20519;-74
2023/04/25 05:51:47;;;;;;;17.98;2.95;;;;;;;;;;5046340;28;20048;-74
2023/04/25 05:54:13;;;;;;;17.15;3.45;;;;;;;;;;5047738;28;20055;-75
2023/04/25 05:56:39;;;;;;;19.63;3.47;;;;;;;;;;5046104;28;20389;-75
2023/04/25 05:59:06;;;;;;;21.38;3.50;;;;;;;;;;5029379;28;20049;-74
2023/04/25 06:01:32;;;;;;;14.25;2.95;;;;;;;;;;5028693;28;20786;-75
2023/04/25 06:03:58;;;;;;;15.88;3.28;;;;;;;;;;5046163;28;20037;-74
2023/04/25 06:06:23;;;;;;;11.85;2.83;;;;;;;;;;5028815;28;20068;-75
2023/04/25 06:08:50;;;;;;;23.23;3.80;;;;;;;;;;5028200;28;20408;-75
2023/04/25 06:11:16;;;;;;;22.52;3.00;;;;;;;;;;5046549;28;20049;-75
2023/04/25 06:13:42;;;;;;;18.25;3.20;;;;;;;;;;5027809;28;20507;-75
2023/04/25 06:16:08;;;;;;;15.73;3.38;;;;;;;;;;5029131;28;20053;-75
2023/04/25 06:18:34;;;;;;;16.23;3.30;;;;;;;;;;5044286;28;20055;-75
2023/04/25 06:21:00;;;;;;;16.92;3.65;;;;;;;;;;5044789;28;20037;-75
2023/04/25 06:23:26;;;;;;;15.68;3.00;;;;;;;;;;5028092;28;20144;-75
2023/04/25 06:25:52;;;;;;;18.95;3.20;;;;;;;;;;5028054;28;20135;-74
2023/04/25 06:28:19;;;;;;;24.50;3.42;;;;;;;;;;5046767;28;20052;-75
2023/04/25 06:30:45;;;;;;;13.30;2.95;;;;;;;;;;5045011;28;20908;-75
2023/04/25 06:33:11;;;;;;;13.07;2.72;;;;;;;;;;5046887;28;20045;-75
2023/04/25 06:35:37;;;;;;;11.90;2.50;;;;;;;;;;5026938;28;20060;-75
2023/04/25 06:38:03;;;;;;;14.48;2.72;;;;;;;;;;5046150;28;20045;-75
2023/04/25 06:40:29;;;;;;;13.52;2.92;;;;;;;;;;5027561;28;20654;-75
2023/04/25 06:42:55;;;;;;;17.52;3.13;;;;;;;;;;5028119;28;20048;-75
2023/04/25 06:45:21;;;;;;;13.15;2.92;;;;;;;;;;5046456;28;20114;-75
2023/04/25 06:47:47;;;;;;;16.88;3.00;;;;;;;;;;5027866;28;20037;-75
2023/04/25 06:50:13;;;;;;;13.80;2.75;;;;;;;;;;5028273;28;20045;-75
2023/04/25 06:52:39;;;;;;;18.42;3.65;;;;;;;;;;5045341;28;20098;-75
2023/04/25 06:55:05;;;;;;;14.73;3.28;;;;;;;;;;5046398;28;20076;-75
2023/04/25 06:57:31;;;;;;;20.08;3.22;;;;;;;;;;5026929;28;20044;-75
2023/04/25 06:59:57;;;;;;;13.52;2.63;;;;;;;;;;5011753;28;20063;-75
2023/04/25 07:02:23;;;;;;;13.80;2.90;;;;;;;;;;5027400;28;20059;-75
2023/04/25 07:04:49;;;;;;;15.95;3.28;;;;;;;;;;5027288;28;20109;-75
2023/04/25 07:07:16;;;;;;;14.85;2.72;;;;;;;;;;5027856;28;20052;-75
2023/04/25 07:09:42;;;;;;;11.57;2.40;;;;;;;;;;5045323;28;20063;-75
2023/04/25 07:12:08;;;;;;;12.77;2.63;;;;;;;;;;5045132;28;20468;-75
2023/04/25 07:14:34;;;;;;;19.58;2.92;;;;;;;;;;5045262;28;20560;-74
2023/04/25 07:17:00;;;;;;;16.35;2.88;;;;;;;;;;5028331;28;20088;-74
2023/04/25 07:19:29;;;;;;;13.80;2.75;;;;;;;;;;5026990;28;20533;-75
2023/04/25 07:21:55;;;;;;;13.15;3.00;;;;;;;;;;5027056;28;20595;-75
2023/04/25 07:24:21;;;;;;;11.30;2.90;;;;;;;;;;5027389;28;20057;-74
2023/04/25 07:26:47;;;;;;;13.80;2.70;;;;;;;;;;5045255;28;20072;-74
2023/04/25 07:29:13;;;;;;;10.80;2.53;;;;;;;;;;5027844;28;20044;-75
2023/04/25 07:31:39;;;;;;;14.55;2.20;;;;;;;;;;5025531;28;20386;-73
2023/04/25 07:34:05;;;;;;;9.30;2.38;;;;;;;;;;5045370;28;20071;-74
2023/04/25 07:36:31;;;;;;;11.60;2.25;;;;;;;;;;5025830;28;20052;-75
2023/04/25 07:38:57;;;;;;;24.45;7.18;;;;;;;;;;5045402;28;20106;-75
2023/04/25 07:41:24;;;;;;;12.45;2.25;;;;;;;;;;5025800;28;20041;-75
2023/04/25 07:43:50;;;;;;;11.35;2.65;;;;;;;;;;5027475;28;20856;-75
2023/04/25 07:46:16;;;;;;;9.25;2.33;;;;;;;;;;5026953;28;20588;-75
2023/04/25 07:48:41;;;;;;;9.88;2.33;;;;;;;;;;5026510;28;20156;-75
2023/04/25 07:51:07;;;;;;;7.82;1.95;;;;;;;;;;5025775;28;20487;-75
2023/04/25 07:53:34;;;;;;;10.93;2.05;;;;;;;;;;5026387;28;20063;-75
2023/04/25 07:56:00;;;;;;;13.05;2.35;;;;;;;;;;5027220;28;20126;-74
2023/04/25 07:58:26;;;;;;;8.75;1.90;;;;;;;;;;5043739;28;20143;-75
2023/04/25 08:00:52;;;;;;;6.63;1.73;;;;;;;;;;5026842;28;20171;-74
2023/04/25 08:03:18;;;;;;;11.05;1.95;;;;;;;;;;5044949;28;20386;-75
2023/04/25 08:05:45;;;;;;;8.82;1.70;;;;;;;;;;5043724;28;20203;-75
2023/04/25 08:08:11;;;;;;;11.68;1.92;;;;;;;;;;5044773;28;20140;-75
2023/04/25 08:10:37;;;;;;;11.77;2.00;;;;;;;;;;5026423;28;20127;-75
2023/04/25 08:13:03;;;;;;;8.45;1.60;;;;;;;;;;5027465;28;20460;-74
2023/04/25 08:15:29;;;;;;;11.32;2.30;;;;;;;;;;5043168;28;20041;-75
2023/04/25 08:17:55;;;;;;;11.35;1.83;;;;;;;;;;5027283;28;20404;-75
2023/04/25 08:20:21;;;;;;;8.18;2.00;;;;;;;;;;5025298;28;20099;-74
2023/04/25 08:22:48;;;;;;;8.73;1.77;;;;;;;;;;5027488;28;20104;-74
2023/04/25 08:25:14;;;;;;;9.43;1.23;;;;;;;;;;5027042;28;20570;-75
2023/04/25 08:27:40;;;;;;;10.10;1.77;;;;;;;;;;5026392;28;20091;-75
2023/04/25 08:30:08;;;;;;;8.93;2.00;;;;;;;;;;5026777;28;20057;-75
2023/04/25 08:32:37;;;;;;;4.37;1.40;;;;;;;;;;5025782;28;20063;-74
2023/04/25 08:35:03;;;;;;;8.68;2.30;;;;;;;;;;5025955;28;20053;-75
2023/04/25 08:37:29;;;;;;;13.88;1.90;;;;;;;;;;5026052;28;20496;-75
2023/04/25 08:39:56;;;;;;;8.48;1.80;;;;;;;;;;5027211;28;20089;-74
2023/04/25 08:42:22;;;;;;;7.80;1.65;;;;;;;;;;5044455;28;20063;-75
2023/04/25 08:44:49;;;;;;;5.55;1.35;;;;;;;;;;5028893;28;20083;-75
2023/04/25 08:47:15;;;;;;;6.30;1.23;;;;;;;;;;5031165;28;20514;-74
2023/04/25 08:49:43;;;;;;;7.32;1.20;;;;;;;;;;5028147;28;20585;-74
2023/04/25 08:52:10;;;;;;;4.07;1.00;;;;;;;;;;5047359;28;20432;-74
2023/04/25 08:54:37;;;;;;;7.60;1.40;;;;;;;;;;5028860;28;20085;-75
2023/04/25 08:57:03;;;;;;;5.82;1.67;;;;;;;;;;5030743;28;20037;-75
2023/04/25 08:59:31;;;;;;;5.20;1.15;;;;;;;;;;5013289;28;20124;-75
2023/04/25 09:01:57;;;;;;;4.88;1.23;;;;;;;;;;5029819;28;20600;-74
2023/04/25 09:04:23;;;;;;;5.35;1.33;;;;;;;;;;5029651;28;20045;-74
2023/04/25 09:06:49;;;;;;;4.25;1.30;;;;;;;;;;5029144;28;20048;-74
2023/04/25 09:09:15;;;;;;;4.80;1.23;;;;;;;;;;5048718;28;20044;-74
2023/04/25 09:11:41;;;;;;;3.75;1.10;;;;;;;;;;5046457;28;20588;-74
2023/04/25 09:14:15;;;;;;;3.10;1.23;;;;;;;;;;5029950;28;20071;-74
2023/04/25 09:17:00;;;;;;;5.18;1.00;;;;;;;;;;5028757;28;20574;-75
2023/04/25 09:19:27;;;;;;;5.07;1.40;;;;;;;;;;5033567;28;20049;-74
2023/04/25 09:22:01;;;;;;;5.03;1.15;;;;;;;;;;5028854;28;20056;-75
2023/04/25 09:24:33;;;;;;;9.65;1.42;;;;;;;;;;5034842;28;20065;-75
2023/04/25 09:26:59;;;;;;;7.38;1.30;;;;;;;;;;5030094;28;20053;-75
2023/04/25 09:29:32;;;;;;;3.70;0.90;;;;;;;;;;5029721;28;20064;-74
2023/04/25 09:32:11;;;;;;;6.53;1.40;;;;;;;;;;5029160;28;20041;-76
2023/04/25 09:34:41;;;;;;;5.95;1.75;;;;;;;;;;5029557;28;20049;-75
2023/04/25 09:37:08;;;;;;;7.85;2.05;;;;;;;;;;5027705;28;20489;-75
2023/04/25 09:39:34;;;;;;;6.78;1.45;;;;;;;;;;5030323;28;20053;-75
2023/04/25 09:42:01;;;;;;;7.13;1.67;;;;;;;;;;5029116;28;20106;-75
2023/04/25 09:44:27;;;;;;;9.35;1.60;;;;;;;;;;5030193;28;20037;-75
2023/04/25 09:46:53;;;;;;;12.40;2.20;;;;;;;;;;5028204;28;20396;-75
2023/04/25 09:49:21;;;;;;;10.70;2.00;;;;;;;;;;5029712;28;20052;-75
2023/04/25 09:51:56;;;;;;;11.35;1.80;;;;;;;;;;5029355;28;20044;-75
2023/04/25 09:54:23;;;;;;;13.00;1.88;;;;;;;;;;5028336;28;20049;-74
2023/04/25 09:56:51;;;;;;;5.45;1.52;;;;;;;;;;5029607;28;20401;-74
2023/04/25 09:59:18;;;;;;;12.18;1.83;;;;;;;;;;5028056;28;20055;-75
2023/04/25 10:01:44;;;;;;;7.85;1.88;;;;;;;;;;5028767;28;20055;-75
2023/04/25 10:04:16;;;;;;;8.50;1.67;;;;;;;;;;5028055;28;20496;-75
2023/04/25 10:06:43;;;;;;;9.57;2.13;;;;;;;;;;5028983;28;20132;-75
2023/04/25 10:09:09;;;;;;;9.43;2.20;;;;;;;;;;5044089;28;20044;-73
2023/04/25 10:11:35;;;;;;;15.45;2.75;;;;;;;;;;5028311;28;20052;-74
2023/04/25 10:14:02;;;;;;;11.02;2.20;;;;;;;;;;5028299;28;20116;-75
2023/04/25 10:16:29;;;;;;;9.27;2.17;;;;;;;;;;5028065;28;20508;-75
2023/04/25 10:18:55;;;;;;;7.93;2.28;;;;;;;;;;5029366;28;20237;-75
2023/04/25 10:21:22;;;;;;;13.63;2.05;;;;;;;;;;5027157;28;20550;-74
2023/04/25 10:23:49;;;;;;;13.18;2.80;;;;;;;;;;5028618;28;20516;-74
2023/04/25 10:26:16;;;;;;;8.50;2.03;;;;;;;;;;5046950;28;20049;-74
2023/04/25 10:28:58;;;;;;;10.30;1.75;;;;;;;;;;5027903;28;20570;-74
2023/04/25 10:31:25;;;;;;;9.55;1.95;;;;;;;;;;5047035;28;20084;-75
2023/04/25 10:33:51;;;;;;;12.80;2.15;;;;;;;;;;5027158;28;20060;-74
2023/04/25 10:36:22;;;;;;;6.95;1.83;;;;;;;;;;5028563;28;20053;-74
2023/04/25 10:38:50;;;;;;;13.55;2.15;;;;;;;;;;5044341;28;20103;-74
2023/04/25 10:41:18;;;;;;;10.48;2.13;;;;;;;;;;5029341;28;20141;-74
2023/04/25 10:43:45;;;;;;;12.55;2.08;;;;;;;;;;5028985;28;20128;-73
2023/04/25 10:46:17;;;;;;;7.85;1.90;;;;;;;;;;5027451;28;20044;-74
2023/04/25 10:48:50;;;;;;;8.27;2.08;;;;;;;;;;5017078;28;20049;-73
2023/04/25 10:51:26;;;;;;;10.68;2.08;;;;;;;;;;5025560;28;20049;-74
2023/04/25 10:53:55;;;;;;;10.43;1.95;;;;;;;;;;5046389;28;20041;-74
2023/04/25 10:56:22;;;;;;;8.95;2.00;;;;;;;;;;5045885;28;20576;-73
2023/04/25 10:58:49;;;;;;;12.20;1.80;;;;;;;;;;5028510;28;20045;-74
2023/04/25 11:01:15;;;;;;;9.50;1.70;;;;;;;;;;5027838;28;20033;-73
2023/04/25 11:03:43;;;;;;;6.50;1.77;;;;;;;;;;5027168;28;20095;-74
2023/04/25 11:06:19;;;;;;;8.90;1.75;;;;;;;;;;5026483;28;20075;-73
2023/04/25 11:08:49;;;;;;;10.40;1.85;;;;;;;;;;5026793;28;20045;-74
2023/04/25 11:11:16;;;;;;;12.00;2.70;;;;;;;;;;5027085;28;20032;-73
2023/04/25 11:13:42;;;;;;;12.80;2.28;;;;;;;;;;5045321;28;20052;-74
2023/04/25 11:16:08;;;;;;;10.80;2.20;;;;;;;;;;5044980;28;20029;-75
2023/04/25 11:18:34;;;;;;;10.88;2.17;;;;;;;;;;5028384;28;20049;-74
2023/04/25 11:21:00;;;;;;;9.23;1.95;;;;;;;;;;5025935;28;20489;-73
2023/04/25 11:23:27;;;;;;;14.43;2.10;;;;;;;;;;5028461;28;20049;-75
2023/04/25 11:25:53;;;;;;;11.73;1.95;;;;;;;;;;5043949;28;20053;-73
2023/04/25 11:28:23;;;;;;;8.68;1.90;;;;;;;;;;5045671;28;20055;-74
2023/04/25 11:30:52;;;;;;;10.13;2.42;;;;;;;;;;5026292;28;20049;-73
2023/04/25 11:33:19;;;;;;;10.65;1.80;;;;;;;;;;5045385;28;20053;-73
2023/04/25 11:35:45;;;;;;;8.05;1.77;;;;;;;;;;5042356;28;20059;-74
2023/04/25 11:38:11;;;;;;;14.23;1.83;;;;;;;;;;5044683;28;20098;-74
2023/04/25 11:40:37;;;;;;;9.70;1.70;;;;;;;;;;5026960;28;20580;-74
2023/04/25 11:43:03;;;;;;;14.50;2.53;;;;;;;;;;5025380;28;20565;-75
2023/04/25 11:45:30;;;;;;;8.48;1.75;;;;;;;;;;5028128;28;20904;-74
2023/04/25 11:47:57;;;;;;;10.70;1.88;;;;;;;;;;5026057;28;20120;-74
2023/04/25 11:50:23;;;;;;;10.50;1.75;;;;;;;;;;5026803;28;20056;-74
2023/04/25 11:52:49;;;;;;;8.63;1.75;;;;;;;;;;5044811;28;20053;-73
2023/04/25 11:55:16;;;;;;;9.90;2.00;;;;;;;;;;5027570;28;20091;-74
2023/04/25 11:57:43;;;;;;;5.57;1.30;;;;;;;;;;5027834;28;20443;-74
2023/04/25 12:00:13;;;;;;;6.68;1.40;;;;;;;;;;5025796;28;20041;-75
2023/04/25 12:02:46;;;;;;;7.88;1.58;;;;;;;;;;5026818;28;20048;-74
2023/04/25 12:05:13;;;;;;;10.52;2.13;;;;;;;;;;5025578;28;20033;-74
2023/04/25 12:07:41;;;;;;;9.43;1.60;;;;;;;;;;5026859;28;20146;-72
2023/04/25 12:10:07;;;;;;;7.45;1.70;;;;;;;;;;5027728;28;20139;-74
2023/04/25 12:12:34;;;;;;;5.53;1.50;;;;;;;;;;5026435;28;20049;-74
2023/04/25 12:15:10;;;;;;;7.20;1.42;;;;;;;;;;5045213;28;20048;-73
2023/04/25 12:17:37;;;;;;;8.80;1.58;;;;;;;;;;5025559;28;20052;-73
2023/04/25 12:20:11;;;;;;;5.40;1.40;;;;;;;;;;5009301;28;20045;-73
2023/04/25 12:22:40;;;;;;;7.25;1.83;;;;;;;;;;5025597;28;20627;-74
2023/04/25 12:25:09;;;;;;;8.98;1.70;;;;;;;;;;4994043;28;20094;-73
2023/04/25 12:27:36;;;;;;;7.95;1.70;;;;;;;;;;5008595;28;20144;-73
2023/04/25 12:30:03;;;;;;;9.75;1.85;;;;;;;;;;5045359;28;20131;-74
2023/04/25 12:32:29;;;;;;;10.15;2.00;;;;;;;;;;5044101;28;20722;-74
2023/04/25 12:34:55;;;;;;;6.30;1.45;;;;;;;;;;5044826;28;20049;-73
2023/04/25 12:37:21;;;;;;;13.45;2.10;;;;;;;;;;5043888;28;20048;-73
2023/04/25 12:39:47;;;;;;;9.23;2.00;;;;;;;;;;5043721;28;20148;-73
2023/04/25 12:42:13;;;;;;;9.30;1.90;;;;;;;;;;5026514;28;20049;-75
2023/04/25 12:44:40;;;;;;;8.88;1.90;;;;;;;;;;5043958;28;20087;-74
2023/04/25 12:47:06;;;;;;;9.60;1.80;;;;;;;;;;5027404;28;20757;-73
2023/04/25 12:49:32;;;;;;;8.45;2.30;;;;;;;;;;5024901;28;20052;-73
2023/04/25 12:51:58;;;;;;;11.38;2.10;;;;;;;;;;5044686;28;20101;-74
2023/04/25 12:54:27;;;;;;;9.95;1.80;;;;;;;;;;5044075;28;20517;-73
2023/04/25 12:56:54;;;;;;;11.10;2.03;;;;;;;;;;5026722;28;20029;-74
2023/04/25 12:59:21;;;;;;;10.45;1.55;;;;;;;;;;5026132;28;20053;-73
2023/04/25 13:01:47;;;;;;;7.82;1.70;;;;;;;;;;5025298;28;20045;-74
2023/04/25 13:04:13;;;;;;;8.80;1.73;;;;;;;;;;5025870;28;20132;-75
2023/04/25 13:06:39;;;;;;;8.27;1.80;;;;;;;;;;5043213;28;20075;-74
2023/04/25 13:09:06;;;;;;;10.32;2.60;;;;;;;;;;5044051;28;20688;-73
2023/04/25 13:11:32;;;;;;;9.07;1.70;;;;;;;;;;5025091;28;20845;-74
2023/04/25 13:13:58;;;;;;;8.52;1.85;;;;;;;;;;5026029;28;20033;-74
2023/04/25 13:16:24;;;;;;;10.35;2.22;;;;;;;;;;5026787;28;20128;-73
2023/04/25 13:18:50;;;;;;;9.32;2.10;;;;;;;;;;5025662;28;20475;-74
2023/04/25 13:21:16;;;;;;;12.07;2.15;;;;;;;;;;5043513;28;20080;-74
2023/04/25 13:23:44;;;;;;;9.15;1.90;;;;;;;;;;5024809;28;20048;-74
2023/04/25 13:26:10;;;;;;;8.70;1.77;;;;;;;;;;5044803;28;20140;-75
2023/04/25 13:28:36;;;;;;;8.82;1.75;;;;;;;;;;5023168;28;20128;-75
2023/04/25 13:31:02;;;;;;;12.13;1.80;;;;;;;;;;5029141;28;20098;-75
2023/04/25 13:33:28;;;;;;;9.15;1.75;;;;;;;;;;5028591;28;20546;-75
2023/04/25 13:35:56;;;;;;;7.75;2.10;;;;;;;;;;5029582;28;20072;-74
2023/04/25 13:38:22;;;;;;;12.63;1.90;;;;;;;;;;5029587;28;20037;-74
2023/04/25 13:40:48;;;;;;;13.38;2.03;;;;;;;;;;5028083;28;20044;-74
2023/04/25 13:43:14;;;;;;;14.13;3.22;;;;;;;;;;5029674;28;20072;-75
2023/04/25 13:45:40;;;;;;;10.50;1.88;;;;;;;;;;5028291;28;20052;-74
2023/04/25 13:48:06;;;;;;;9.23;1.90;;;;;;;;;;5047298;28;20116;-74
2023/04/25 13:50:32;;;;;;;10.63;2.00;;;;;;;;;;5027626;28;20168;-73
2023/04/25 13:52:58;;;;;;;12.30;2.20;;;;;;;;;;5029676;28;20479;-74
2023/04/25 13:55:24;;;;;;;12.23;2.33;;;;;;;;;;5029195;28;20056;-75
2023/04/25 13:57:50;;;;;;;11.18;2.63;;;;;;;;;;5046488;28;20048;-74
2023/04/25 14:00:16;;;;;;;13.07;2.40;;;;;;;;;;5029018;28;20053;-74
2023/04/25 14:02:42;;;;;;;11.10;2.10;;;;;;;;;;5046199;28;20029;-75
2023/04/25 14:05:09;;;;;;;11.27;2.00;;;;;;;;;;5046753;28;20452;-75
2023/04/25 14:07:35;;;;;;;20.67;7.18;;;;;;;;;;5011463;28;20459;-74
2023/04/25 14:10:01;;;;;;;15.60;3.70;;;;;;;;;;5046273;28;20041;-75
2023/04/25 14:12:27;;;;;;;12.95;1.98;;;;;;;;;;5028173;28;20045;-75
2023/04/25 14:14:53;;;;;;;9.40;1.73;;;;;;;;;;5028969;28;20566;-74
2023/04/25 14:17:20;;;;;;;11.57;1.65;;;;;;;;;;5028711;28;20052;-75
2023/04/25 14:19:47;;;;;;;6.35;1.60;;;;;;;;;;5027438;28;20045;-74
2023/04/25 14:22:14;;;;;;;7.38;1.45;;;;;;;;;;5028330;28;20121;-74
2023/04/25 14:24:40;;;;;;;7.65;1.40;;;;;;;;;;5027863;28;20450;-75
2023/04/25 14:27:06;;;;;;;7.05;1.92;;;;;;;;;;5047427;28;20052;-76
2023/04/25 14:29:32;;;;;;;7.78;1.50;;;;;;;;;;5027461;28;20044;-74